Larkhill, United Kingdom
Current Conditions -  °F | °C
As of 6:50 PM on Friday 24 Oct 2014 (Local Time) from EGDM Reporting Station
Broken Clouds Broken Clouds  
Wind Chill: 55°   Ceiling: 2400
Heat Index: 55°   Visibility: 6mi
Dew Point: 52°   Wind: 14mph
Humidity: 88%   Direction: 280°W
Pressure: 29.94"   Gusts: NA
Location:  51.2°N, 1.8°W
Report Text: EGDM 241750Z AUTO 28012KT 9999 FEW012/// BKN024/// 13/11 Q1014 RERA
Loading
Personal Weather Stations






























Interactive Weather Map
Tropical Storm Tracking
New forecast layout! Learn more

10-Day Weather Forecast

Advertisements
Track Severe Weather on mobile